Time;durP1;ratioP1;P1;durP2;ratioP2;P2;SDS_P1;SDS_P2;PMS_P1;PMS_P2;Temp;Humidity;BMP_temperature;BMP_pressure;BME280_temperature;BME280_humidity;BME280_pressure;Samples;Min_cycle;Max_cycle;Signal;HPM_P1;HPM_P2
2021/04/16 00:00:52;;;;;;;7.50;1.70;;;;;;;23.55;39.00;99955.50;4484276;32;33650;-48
2021/04/16 00:03:19;;;;;;;6.35;1.92;;;;;;;23.54;38.96;99962.84;4484208;32;34673;-50
2021/04/16 00:05:47;;;;;;;7.20;1.77;;;;;;;23.54;38.94;99959.28;4484431;32;32479;-50
2021/04/16 00:08:22;;;;;;;8.07;1.87;;;;;;;23.52;39.01;99953.25;4484322;32;34350;-49
2021/04/16 00:10:53;;;;;;;9.20;1.92;;;;;;;23.52;39.07;99955.97;4484212;32;33907;-50
2021/04/16 00:13:21;;;;;;;4.28;1.30;;;;;;;23.48;39.11;99950.13;4484323;31;32210;-50
2021/04/16 00:15:48;;;;;;;7.20;1.75;;;;;;;23.49;39.06;99951.78;4484358;32;32428;-53
2021/04/16 00:18:17;;;;;;;5.55;1.67;;;;;;;23.46;39.10;99952.25;4484356;32;33448;-49
2021/04/16 00:20:44;;;;;;;5.07;1.48;;;;;;;23.46;39.17;99944.09;4484281;32;34599;-48
2021/04/16 00:23:11;;;;;;;8.38;1.65;;;;;;;23.46;39.16;99948.72;4484129;32;33929;-49
2021/04/16 00:25:38;;;;;;;6.12;1.50;;;;;;;23.45;39.22;99949.75;4484320;32;34594;-49
2021/04/16 00:28:06;;;;;;;8.20;1.80;;;;;;;23.42;39.25;99940.16;4484284;32;32331;-50
2021/04/16 00:30:39;;;;;;;7.43;1.80;;;;;;;23.41;39.22;99946.66;4483888;32;33850;-50
2021/04/16 00:33:06;;;;;;;6.87;1.80;;;;;;;23.41;39.28;99946.66;4484176;32;33898;-50
2021/04/16 00:35:35;;;;;;;3.85;1.33;;;;;;;23.39;39.26;99952.31;4484102;32;34539;-51
2021/04/16 00:38:03;;;;;;;4.47;1.45;;;;;;;23.38;39.36;99947.09;4484117;32;34162;-50
2021/04/16 00:40:33;;;;;;;5.45;1.42;;;;;;;23.37;39.32;99942.69;4484192;32;34261;-52
2021/04/16 00:43:00;;;;;;;5.55;1.48;;;;;;;23.36;39.36;99949.19;4484212;32;33835;-51
2021/04/16 00:45:28;;;;;;;5.97;1.60;;;;;;;23.35;39.36;99940.19;4483945;32;34394;-49
2021/04/16 00:47:57;;;;;;;8.30;1.90;;;;;;;23.34;39.41;99948.59;4483888;32;33421;-51
2021/04/16 00:50:31;;;;;;;4.95;1.48;;;;;;;23.33;39.45;99946.94;4469951;32;34837;-52
2021/04/16 00:53:01;;;;;;;4.50;1.87;;;;;;;23.33;39.58;99944.19;4470275;32;32948;-49
2021/04/16 00:55:28;;;;;;;5.57;1.65;;;;;;;23.30;39.65;99948.19;4482855;32;34822;-50
2021/04/16 00:57:55;;;;;;;3.22;1.15;;;;;;;23.30;39.67;99936.47;4482669;32;31713;-49
2021/04/16 01:00:23;;;;;;;4.22;1.50;;;;;;;23.30;39.64;99955.53;4484020;32;33869;-51
2021/04/16 01:02:50;;;;;;;6.70;1.80;;;;;;;23.28;39.69;99953.03;4483669;32;34246;-50
2021/04/16 01:05:18;;;;;;;7.62;1.87;;;;;;;23.28;39.64;99950.31;4468443;32;33558;-49
2021/04/16 01:07:45;;;;;;;7.95;2.12;;;;;;;23.28;39.59;99947.59;4468302;32;33023;-48
2021/04/16 01:10:13;;;;;;;5.85;1.67;;;;;;;23.27;39.70;99947.78;4467215;32;33512;-49
2021/04/16 01:12:40;;;;;;;4.45;1.23;;;;;;;23.26;39.64;99943.41;4468263;32;32864;-50
2021/04/16 01:15:18;;;;;;;4.03;1.50;;;;;;;23.24;39.71;99935.47;4467229;32;32522;-51
2021/04/16 01:17:45;;;;;;;3.90;1.58;;;;;;;23.23;39.72;99941.16;4479516;32;33107;-51
2021/04/16 01:20:18;;;;;;;7.47;1.52;;;;;;;23.23;39.71;99938.44;4482407;32;34352;-50
2021/04/16 01:23:02;;;;;;;5.90;1.37;;;;;;;23.22;39.71;99940.28;4482766;32;33118;-52
2021/04/16 01:25:29;;;;;;;3.25;1.30;;;;;;;23.23;39.72;99943.88;4470637;32;33558;-50
2021/04/16 01:27:56;;;;;;;3.65;1.62;;;;;;;23.20;39.84;99941.59;4469650;32;33753;-53
2021/04/16 01:30:26;;;;;;;5.05;1.75;;;;;;;23.20;39.83;99938.84;4483851;32;34776;-51
2021/04/16 01:32:54;;;;;;;4.10;1.42;;;;;;;23.19;39.82;99937.19;4483991;32;32231;-50
2021/04/16 01:35:26;;;;;;;4.18;1.30;;;;;;;23.18;39.85;99936.38;4471379;32;33890;-51
2021/04/16 01:37:53;;;;;;;4.45;1.25;;;;;;;23.16;39.79;99936.56;4475304;32;33050;-53
2021/04/16 01:40:20;;;;;;;5.75;2.15;;;;;;;23.17;39.81;99937.41;4483528;32;33918;-50
2021/04/16 01:42:47;;;;;;;4.47;1.60;;;;;;;23.16;39.84;99944.72;4483868;31;32291;-51
2021/04/16 01:45:17;;;;;;;4.03;1.55;;;;;;;23.15;39.92;99944.97;4483477;32;34175;-54
2021/04/16 01:47:44;;;;;;;2.53;1.25;;;;;;;23.14;39.79;99956.91;4483679;32;34432;-55
2021/04/16 01:50:12;;;;;;;6.32;1.50;;;;;;;23.15;39.81;99953.97;4483815;32;32554;-53
2021/04/16 01:52:38;;;;;;;4.68;1.40;;;;;;;23.13;39.83;99949.81;4483251;31;33442;-51
2021/04/16 01:55:06;;;;;;;4.35;1.27;;;;;;;23.12;39.97;99946.22;4483412;32;31991;-52
2021/04/16 01:57:34;;;;;;;4.35;1.58;;;;;;;23.12;39.91;99942.69;4483417;32;31817;-51
2021/04/16 02:00:04;;;;;;;6.55;1.85;;;;;;;23.11;39.94;99943.75;4483297;32;33918;-53
2021/04/16 02:02:38;;;;;;;3.58;1.08;;;;;;;23.11;39.98;99946.47;4483644;31;32228;-53
2021/04/16 02:05:06;;;;;;;4.93;1.30;;;;;;;23.09;39.95;99943.97;4483859;32;32842;-51
2021/04/16 02:07:34;;;;;;;3.25;1.27;;;;;;;23.08;39.98;99946.88;4485065;32;33108;-52
2021/04/16 02:10:01;;;;;;;4.18;1.50;;;;;;;23.07;39.98;99947.94;4485216;32;33542;-51
2021/04/16 02:12:28;;;;;;;7.15;1.27;;;;;;;23.06;40.07;99949.84;4485113;32;34584;-56
2021/04/16 02:14:55;;;;;;;4.28;1.30;;;;;;;23.08;40.10;99944.16;4485028;32;34459;-54
2021/04/16 02:17:26;;;;;;;4.40;1.30;;;;;;;23.06;40.13;99944.41;4485319;32;34024;-53
2021/04/16 02:19:54;;;;;;;6.45;1.48;;;;;;;23.06;40.15;99938.13;4485246;32;32224;-53
2021/04/16 02:22:24;;;;;;;3.53;1.52;;;;;;;23.05;40.24;99936.47;4483973;32;35034;-53
2021/04/16 02:24:51;;;;;;;5.20;1.30;;;;;;;23.05;40.24;99940.03;4485205;32;34403;-54
2021/04/16 02:27:20;;;;;;;4.62;1.42;;;;;;;23.05;40.21;99941.91;4484974;32;34145;-52
2021/04/16 02:29:47;;;;;;;4.28;1.30;;;;;;;23.04;40.19;99934.81;4485026;32;34703;-53
2021/04/16 02:32:15;;;;;;;4.93;1.40;;;;;;;23.03;40.23;99936.66;4484923;32;33937;-50
2021/04/16 02:34:42;;;;;;;5.07;1.25;;;;;;;23.03;40.30;99939.37;4484799;32;34655;-49
2021/04/16 02:37:12;;;;;;;10.70;1.75;;;;;;;23.01;40.32;99930.63;4485035;32;34458;-54
2021/04/16 02:39:39;;;;;;;3.17;1.42;;;;;;;23.02;40.32;99926.84;4485086;32;34462;-55
2021/04/16 02:42:06;;;;;;;4.28;1.20;;;;;;;23.02;40.30;99924.13;4484825;32;34861;-52
2021/04/16 02:44:34;;;;;;;5.07;1.42;;;;;;;23.01;40.27;99925.19;4485246;31;33468;-53
2021/04/16 02:47:01;;;;;;;6.87;1.33;;;;;;;23.01;40.15;99925.19;4484710;32;33355;-51
2021/04/16 02:49:28;;;;;;;5.25;1.30;;;;;;;23.00;40.19;99922.69;4484802;32;33977;-51
2021/04/16 02:51:56;;;;;;;4.28;1.48;;;;;;;22.99;40.25;99924.59;4484775;31;33580;-49
2021/04/16 02:54:23;;;;;;;3.85;1.27;;;;;;;22.98;40.30;99928.34;4484944;32;33482;-52
2021/04/16 02:56:50;;;;;;;3.22;1.17;;;;;;;22.98;40.35;99928.34;4485081;31;31567;-50
2021/04/16 02:59:18;;;;;;;5.30;1.35;;;;;;;22.98;40.43;99936.50;4484811;32;34664;-53
2021/04/16 03:01:45;;;;;;;4.93;1.40;;;;;;;22.98;40.35;99930.22;4484772;31;32149;-50
2021/04/16 03:04:12;;;;;;;3.28;1.00;;;;;;;22.99;40.23;99934.59;4484627;32;32114;-51
2021/04/16 03:06:40;;;;;;;5.03;1.48;;;;;;;22.99;40.38;99943.62;4484927;32;33307;-52
2021/04/16 03:09:07;;;;;;;3.55;1.40;;;;;;;22.98;40.33;99938.38;4484739;32;34538;-53
2021/04/16 03:11:34;;;;;;;3.75;1.30;;;;;;;22.98;40.28;99938.38;4484479;32;33955;-53
2021/04/16 03:14:01;;;;;;;7.68;1.60;;;;;;;22.98;40.35;99938.38;4484807;32;34617;-52
2021/04/16 03:16:28;;;;;;;5.82;1.40;;;;;;;22.97;40.30;99943.00;4484695;32;32027;-53
2021/04/16 03:18:56;;;;;;;6.68;1.42;;;;;;;22.96;40.31;99941.34;4481061;32;33827;-51
2021/04/16 03:21:24;;;;;;;3.90;1.10;;;;;;;22.96;40.35;99946.78;4478659;32;33865;-49
2021/04/16 03:23:51;;;;;;;5.62;1.35;;;;;;;22.96;40.24;99944.06;4483046;32;32555;-53
2021/04/16 03:26:18;;;;;;;5.78;1.17;;;;;;;22.96;40.32;99943.22;4484477;32;34141;-53
2021/04/16 03:28:46;;;;;;;6.32;1.23;;;;;;;22.95;40.36;99953.28;4484654;32;34411;-52
2021/04/16 03:31:13;;;;;;;5.80;1.30;;;;;;;22.94;40.29;99950.75;4469760;31;32452;-54
2021/04/16 03:33:40;;;;;;;4.55;1.55;;;;;;;22.93;40.30;99955.37;4468898;32;32592;-53
2021/04/16 03:36:08;;;;;;;4.32;1.65;;;;;;;22.93;40.39;99955.37;4471434;32;33073;-52
2021/04/16 03:38:35;;;;;;;4.82;1.20;;;;;;;22.93;40.37;99958.09;4484593;32;34490;-52
2021/04/16 03:41:02;;;;;;;3.85;1.20;;;;;;;22.92;40.48;99953.72;4484423;32;32553;-51
2021/04/16 03:43:29;;;;;;;4.25;1.30;;;;;;;22.92;40.33;99956.44;4484494;32;33910;-52
2021/04/16 03:45:59;;;;;;;4.07;1.27;;;;;;;22.91;40.38;99957.50;4484643;32;33349;-49
2021/04/16 03:48:27;;;;;;;3.67;1.40;;;;;;;22.91;40.26;99961.03;4484547;32;31992;-50
2021/04/16 03:50:55;;;;;;;5.97;1.25;;;;;;;22.91;40.42;99960.22;4484693;32;33957;-55
2021/04/16 03:53:22;;;;;;;4.55;1.30;;;;;;;22.92;40.37;99961.88;4484226;31;33876;-50
2021/04/16 03:55:49;;;;;;;6.30;1.45;;;;;;;22.91;40.28;99961.03;4484280;32;33493;-54
2021/04/16 03:58:16;;;;;;;5.32;1.30;;;;;;;22.91;40.36;99957.50;4484521;32;33865;-51
2021/04/16 04:00:43;;;;;;;4.18;1.42;;;;;;;22.90;40.42;99962.09;4484468;32;33896;-52
2021/04/16 04:03:12;;;;;;;3.87;1.20;;;;;;;22.91;40.40;99954.78;4474330;32;33148;-49
2021/04/16 04:05:39;;;;;;;5.07;1.30;;;;;;;22.89;40.40;99954.13;4483628;32;34279;-49
2021/04/16 04:08:07;;;;;;;4.18;1.15;;;;;;;22.88;40.35;99955.16;4484330;31;33193;-51
2021/04/16 04:10:36;;;;;;;7.22;1.20;;;;;;;22.88;40.44;99957.88;4481300;32;34758;-50
2021/04/16 04:13:07;;;;;;;5.93;1.35;;;;;;;22.87;40.41;99953.50;4484250;32;34805;-49
2021/04/16 04:15:34;;;;;;;3.70;1.20;;;;;;;22.88;40.42;99950.56;4484405;32;33525;-49
2021/04/16 04:18:07;;;;;;;4.75;1.33;;;;;;;22.88;40.38;99957.88;4484215;31;32411;-48
2021/04/16 04:20:35;;;;;;;4.12;1.27;;;;;;;22.86;40.43;99958.13;4484439;31;33455;-49
2021/04/16 04:23:03;;;;;;;3.37;1.10;;;;;;;22.85;40.34;99959.19;4483966;32;33886;-53
2021/04/16 04:25:31;;;;;;;5.40;1.25;;;;;;;22.86;40.37;99960.00;4484199;32;34201;-49
2021/04/16 04:27:59;;;;;;;2.62;1.10;;;;;;;22.84;40.42;99953.94;4483822;32;33859;-50
2021/04/16 04:30:28;;;;;;;7.07;1.27;;;;;;;22.85;40.45;99953.72;4483934;32;33918;-50
2021/04/16 04:32:56;;;;;;;8.13;1.67;;;;;;;22.83;40.47;99949.56;4484256;32;33842;-48
2021/04/16 04:35:24;;;;;;;9.52;1.50;;;;;;;22.83;40.48;99961.25;4484103;32;34127;-50
2021/04/16 04:37:50;;;;;;;6.10;1.40;;;;;;;22.83;40.37;99961.25;4483980;32;34565;-49
2021/04/16 04:40:19;;;;;;;6.37;1.60;;;;;;;22.84;40.49;99956.66;4484159;32;33890;-49
2021/04/16 04:42:46;;;;;;;6.32;1.30;;;;;;;22.82;40.50;99956.88;4484160;32;33726;-50
2021/04/16 04:45:13;;;;;;;5.37;1.12;;;;;;;22.83;40.52;99965.88;4483982;32;33322;-49
2021/04/16 04:47:40;;;;;;;2.62;1.20;;;;;;;22.82;40.54;99966.94;4484379;32;32647;-50
2021/04/16 04:50:08;;;;;;;3.35;1.17;;;;;;;22.82;40.45;99967.75;4483944;32;34743;-50
2021/04/16 04:52:36;;;;;;;4.25;1.10;;;;;;;22.82;40.52;99961.50;4482781;31;33679;-51
2021/04/16 04:55:07;;;;;;;2.70;1.20;;;;;;;22.81;40.42;99963.37;4483974;32;32934;-49
2021/04/16 04:57:34;;;;;;;5.72;1.25;;;;;;;22.80;40.59;99966.31;4484041;32;34626;-53
2021/04/16 05:00:01;;;;;;;6.72;1.30;;;;;;;22.81;40.56;99965.28;4484001;32;33455;-48
2021/04/16 05:02:28;;;;;;;3.90;1.20;;;;;;;22.80;40.58;99969.03;4483857;32;34729;-50
2021/04/16 05:04:55;;;;;;;4.62;1.12;;;;;;;22.79;40.59;99970.91;4477881;32;33660;-51
2021/04/16 05:07:22;;;;;;;7.35;1.20;;;;;;;22.80;40.58;99969.87;4471703;32;32099;-49
2021/04/16 05:09:49;;;;;;;4.78;1.30;;;;;;;22.78;40.63;99974.69;4474574;32;32154;-50
2021/04/16 05:12:16;;;;;;;6.12;1.87;;;;;;;22.79;40.59;99980.97;4476680;32;32224;-48
2021/04/16 05:14:43;;;;;;;4.90;1.23;;;;;;;22.77;40.60;99978.47;4477754;32;33443;-51
2021/04/16 05:17:10;;;;;;;10.02;1.33;;;;;;;22.77;40.61;99975.75;4474369;32;32245;-48
2021/04/16 05:19:38;;;;;;;9.27;2.05;;;;;;;22.77;40.66;99980.34;4477946;32;32598;-50
2021/04/16 05:22:05;;;;;;;9.35;1.80;;;;;;;22.77;40.66;99980.34;4468259;32;32009;-50
2021/04/16 05:24:33;;;;;;;3.50;0.90;;;;;;;22.77;40.69;99985.81;4475111;32;34014;-58
2021/04/16 05:27:13;;;;;;;6.87;1.40;;;;;;;22.76;40.70;99976.81;4483755;32;34724;-48
2021/04/16 05:29:40;;;;;;;5.07;1.00;;;;;;;22.78;40.76;99979.31;4483834;32;33673;-51
2021/04/16 05:32:07;;;;;;;4.30;1.00;;;;;;;22.76;40.49;99976.81;4484035;32;33436;-49
2021/04/16 05:34:34;;;;;;;3.05;1.10;;;;;;;22.77;40.58;99977.63;4483777;32;34185;-49
2021/04/16 05:37:02;;;;;;;3.67;1.10;;;;;;;22.76;40.53;99976.81;4474820;32;32609;-50
2021/04/16 05:39:29;;;;;;;4.32;1.25;;;;;;;22.76;40.50;99981.41;4467597;32;34049;-50
2021/04/16 05:41:56;;;;;;;7.37;3.00;;;;;;;22.74;40.47;99978.06;4467469;32;33810;-55
2021/04/16 05:44:23;;;;;;;11.25;4.03;;;;;;;22.82;37.58;99983.25;4467687;32;33095;-53
2021/04/16 05:46:51;;;;;;;7.25;2.47;;;;;;;22.74;36.20;99981.62;4471877;31;32750;-53
2021/04/16 05:49:18;;;;;;;8.07;2.80;;;;;;;22.69;37.81;99986.03;4476535;31;34696;-52
2021/04/16 05:51:45;;;;;;;12.80;2.80;;;;;;;22.65;38.34;99977.47;4473533;32;34620;-52
2021/04/16 05:54:12;;;;;;;12.60;2.62;;;;;;;22.64;38.40;99978.53;4483073;32;33715;-51
2021/04/16 05:56:39;;;;;;;13.68;2.35;;;;;;;22.63;38.58;99980.41;4483409;32;32871;-54
2021/04/16 05:59:06;;;;;;;7.10;2.53;;;;;;;22.63;38.71;99983.16;4482746;32;32535;-51
2021/04/16 06:01:33;;;;;;;7.87;2.50;;;;;;;22.64;38.91;99983.97;4483266;32;33948;-51
2021/04/16 06:04:01;;;;;;;8.45;2.37;;;;;;;22.64;39.01;99981.25;4476184;32;33193;-52
2021/04/16 06:06:28;;;;;;;9.07;2.10;;;;;;;22.63;39.03;99985.84;4481360;32;33829;-53
2021/04/16 06:08:55;;;;;;;11.43;1.90;;;;;;;22.64;39.14;99989.41;4482899;32;33354;-54
2021/04/16 06:11:23;;;;;;;7.25;1.83;;;;;;;22.65;39.22;99991.06;4482869;32;34508;-49
2021/04/16 06:13:50;;;;;;;7.85;2.22;;;;;;;22.65;39.26;99994.63;4471743;32;34718;-49
2021/04/16 06:16:17;;;;;;;8.07;1.90;;;;;;;22.66;39.32;99990.88;4473020;32;32174;-53
2021/04/16 06:18:44;;;;;;;4.28;1.50;;;;;;;22.66;39.34;99993.59;4467076;32;34065;-50
2021/04/16 06:21:11;;;;;;;7.15;1.92;;;;;;;22.68;39.38;99993.37;4466892;32;33586;-49
2021/04/16 06:23:38;;;;;;;7.80;2.20;;;;;;;22.67;39.46;99984.38;4466636;32;33270;-49
2021/04/16 06:26:07;;;;;;;6.03;1.83;;;;;;;22.69;39.47;99996.91;4466917;32;34394;-53
2021/04/16 06:28:34;;;;;;;8.43;1.73;;;;;;;22.69;39.52;99989.59;4467203;32;33603;-52
2021/04/16 06:31:01;;;;;;;7.30;2.20;;;;;;;22.71;39.54;99997.53;4466655;32;33714;-47
2021/04/16 06:33:33;;;;;;;8.40;2.00;;;;;;;22.69;39.54;99976.00;4466959;32;32950;-53
2021/04/16 06:36:08;;;;;;;7.93;1.52;;;;;;;22.69;39.62;99976.00;4467278;32;34592;-50
2021/04/16 06:38:37;;;;;;;9.05;2.17;;;;;;;22.70;39.63;99977.66;4467296;32;33841;-59
2021/04/16 06:41:12;;;;;;;13.18;2.17;;;;;;;22.69;39.57;99988.75;4467005;32;34761;-51
2021/04/16 06:43:48;;;;;;;16.25;2.40;;;;;;;22.71;39.49;99994.81;4465647;32;33412;-49
2021/04/16 06:46:23;;;;;;;8.77;2.10;;;;;;;22.68;39.45;99987.94;4469746;31;34308;-48
2021/04/16 06:48:51;;;;;;;15.38;2.17;;;;;;;22.70;39.31;99998.59;4470092;31;33817;-51
2021/04/16 06:51:20;;;;;;;5.62;1.87;;;;;;;22.67;39.37;99989.81;4475448;32;33858;-50
2021/04/16 06:54:01;;;;;;;11.98;2.12;;;;;;;22.67;39.40;99992.53;4464908;32;33211;-50
2021/04/16 06:56:46;;;;;;;9.27;1.77;;;;;;;22.66;39.44;99990.88;4462414;32;33675;-50
2021/04/16 06:59:24;;;;;;;13.52;2.20;;;;;;;22.69;39.44;99999.66;4480959;32;33896;-49
2021/04/16 07:01:57;;;;;;;8.48;2.30;;;;;;;22.66;39.38;100003.63;4479713;32;33737;-50
2021/04/16 07:04:31;;;;;;;16.67;2.15;;;;;;;22.67;39.37;100008.03;4470586;32;33122;-54
2021/04/16 07:07:01;;;;;;;17.55;2.45;;;;;;;22.64;39.43;100009.28;4483334;32;33860;-49
2021/04/16 07:09:33;;;;;;;15.60;2.33;;;;;;;22.62;39.49;100003.25;4470375;32;33983;-65
2021/04/16 07:12:05;;;;;;;20.73;3.03;;;;;;;22.65;39.34;100005.50;4483414;32;34830;-62
2021/04/16 07:14:42;;;;;;;26.27;3.97;;;;;;;22.67;38.47;100008.03;4474372;32;33329;-49
2021/04/16 07:17:12;;;;;;;32.75;4.65;;;;;;;22.71;37.84;100009.28;4471534;32;33773;-52
2021/04/16 07:19:39;;;;;;;;;;;;;;;22.71;37.51;100003.81;4476156;31;33784;-50
2021/04/16 07:22:21;;;;;;;27.98;4.10;;;;;;;22.86;37.46;100015.25;4470775;31;34068;-53
2021/04/16 07:24:50;;;;;;;24.80;4.07;;;;;;;22.86;37.88;100012.53;4478087;32;34102;-53
2021/04/16 07:27:42;;;;;;;33.70;4.00;;;;;;;22.93;38.10;100007.06;4481130;32;33574;-52
2021/04/16 07:30:38;;;;;;;35.33;3.85;;;;;;;23.09;38.15;100003.00;4468621;32;33868;-55
2021/04/16 07:33:32;;;;;;;20.23;3.50;;;;;;;23.32;38.02;100010.59;4468531;32;33703;-55
2021/04/16 07:36:19;;;;;;;31.33;3.70;;;;;;;23.54;37.85;100013.75;4467338;32;33619;-63
2021/04/16 07:39:01;;;;;;;42.40;4.55;;;;;;;23.71;37.61;100014.91;4484279;32;33759;-60
2021/04/16 07:41:31;;;;;;;32.13;4.68;;;;;;;23.85;37.03;100013.75;4476712;32;33784;-60
2021/04/16 07:43:59;;;;;;;28.57;3.40;;;;;;;23.95;36.69;100015.94;4474708;32;33752;-63
2021/04/16 07:46:26;;;;;;;29.30;4.22;;;;;;;24.04;36.53;100019.22;4479497;32;33622;-67
2021/04/16 07:49:13;;;;;;;32.40;4.22;;;;;;;24.12;36.50;100013.47;4482330;32;33803;-47
2021/04/16 07:51:42;;;;;;;36.45;5.50;;;;;;;24.21;36.48;100019.47;4468743;32;34038;-52
2021/04/16 07:54:29;;;;;;;36.22;4.85;;;;;;;24.29;36.52;100014.53;4468523;32;34090;-51
2021/04/16 07:57:22;;;;;;;27.98;4.60;;;;;;;24.37;36.54;100007.97;4467357;32;34865;-52
2021/04/16 08:00:09;;;;;;;36.80;6.10;;;;;;;24.40;36.28;100011.09;4466267;32;34448;-55
2021/04/16 08:02:46;;;;;;;42.95;6.00;;;;;;;24.42;36.19;100005.41;4467474;32;33949;-55
2021/04/16 08:05:14;;;;;;;50.83;6.55;;;;;;;24.42;36.18;100006.22;4454359;32;35197;-55
2021/04/16 08:07:41;;;;;;;57.42;6.85;;;;;;;24.43;36.50;100012.50;4468623;32;33334;-56
2021/04/16 08:10:15;;;;;;;53.45;6.43;;;;;;;24.46;36.48;100005.78;4467254;32;33867;-60
2021/04/16 08:12:42;;;;;;;61.15;7.30;;;;;;;24.45;36.48;100015.03;4468430;32;34637;-57
2021/04/16 08:15:14;;;;;;;53.50;7.60;;;;;;;24.43;36.32;100007.91;4468500;32;33766;-61
2021/04/16 08:17:42;;;;;;;56.30;7.18;;;;;;;24.42;36.27;100005.41;4468621;32;34158;-60
2021/04/16 08:20:30;;;;;;;51.03;5.85;;;;;;;24.43;35.85;100007.06;4467273;32;33773;-64
2021/04/16 08:23:13;;;;;;;59.42;6.97;;;;;;;24.44;35.67;100016.94;4467248;32;33127;-64
2021/04/16 08:25:53;;;;;;;59.67;7.95;;;;;;;24.38;35.74;100010.47;4454656;32;34846;-47
2021/04/16 08:28:35;;;;;;;66.05;7.30;;;;;;;24.39;35.83;100014.88;4467395;32;34272;-57
2021/04/16 08:31:05;;;;;;;63.28;6.68;;;;;;;24.36;35.82;100017.19;4454771;32;33591;-60
2021/04/16 08:33:41;;;;;;;48.00;7.78;;;;;;;24.33;36.05;100017.63;4454257;32;33681;-61
2021/04/16 08:36:18;;;;;;;56.88;7.95;;;;;;;24.33;36.00;100020.37;4454863;32;33803;-61
2021/04/16 08:39:01;;;;;;;57.78;6.68;;;;;;;24.30;35.84;100032.59;4472643;32;33264;-61
2021/04/16 08:41:31;;;;;;;44.15;6.95;;;;;;;24.29;35.98;100032.78;4468218;32;35383;-61
2021/04/16 08:44:01;;;;;;;35.30;5.93;;;;;;;24.26;35.78;100035.97;4460340;32;33823;-60
2021/04/16 08:46:38;;;;;;;45.22;6.25;;;;;;;24.25;35.65;100035.16;4467005;32;33533;-60
2021/04/16 08:49:10;;;;;;;50.60;5.57;;;;;;;24.24;35.64;100038.91;4475964;32;33338;-60
2021/04/16 08:51:43;;;;;;;41.83;6.90;;;;;;;24.22;35.70;100040.22;4469761;32;34547;-61
2021/04/16 08:54:33;;;;;;;37.13;6.07;;;;;;;24.21;35.64;100038.56;4468704;32;33878;-60
2021/04/16 08:57:19;;;;;;;41.70;6.87;;;;;;;24.21;35.59;100033.94;4470231;32;34742;-52
2021/04/16 09:00:15;;;;;;;40.40;5.90;;;;;;;24.17;35.64;100038.16;4467839;32;33225;-53
2021/04/16 09:02:55;;;;;;;29.40;4.65;;;;;;;24.16;35.80;100037.34;4459020;32;34762;-57
2021/04/16 09:05:32;;;;;;;36.42;6.40;;;;;;;24.12;36.06;100040.75;4466432;32;34570;-53
2021/04/16 09:08:23;;;;;;;41.85;5.87;;;;;;;24.07;36.29;100040.59;4476459;32;34507;-60
2021/04/16 09:10:55;;;;;;;31.45;4.95;;;;;;;24.05;36.50;100043.50;4469925;32;33137;-60
2021/04/16 09:13:41;;;;;;;36.47;5.25;;;;;;;24.02;36.72;100040.44;4483353;32;33836;-61
2021/04/16 09:16:47;;;;;;;41.17;5.82;;;;;;;24.00;36.77;100042.53;4482096;32;34605;-61
2021/04/16 09:19:27;;;;;;;42.33;5.50;;;;;;;24.02;36.47;100048.59;4483179;32;34646;-61
2021/04/16 09:22:06;;;;;;;39.60;5.62;;;;;;;24.00;36.24;100042.53;4483383;32;34353;-60
2021/04/16 09:24:47;;;;;;;37.47;5.63;;;;;;;23.97;36.15;100046.56;4483492;32;33530;-60
2021/04/16 09:27:26;;;;;;;38.72;5.10;;;;;;;23.97;36.12;100038.38;4482944;32;34619;-60
2021/04/16 09:30:00;;;;;;;32.92;5.00;;;;;;;23.97;35.84;100041.09;4483554;32;35288;-61
2021/04/16 09:32:33;;;;;;;35.60;6.15;;;;;;;23.97;36.14;100045.69;4477809;32;34457;-60
2021/04/16 09:35:17;;;;;;;33.88;6.28;;;;;;;23.94;36.22;100041.53;4477660;32;33880;-60
2021/04/16 09:37:47;;;;;;;31.08;4.45;;;;;;;23.92;36.10;100047.22;4467963;32;34274;-52
2021/04/16 09:40:21;;;;;;;41.53;5.50;;;;;;;23.91;35.89;100053.72;4472579;32;33843;-60
2021/04/16 09:42:54;;;;;;;44.72;5.93;;;;;;;23.89;36.13;100053.13;4482963;32;33493;-56
2021/04/16 09:45:27;;;;;;;51.55;5.80;;;;;;;23.87;36.38;100038.84;4469012;32;34505;-50
2021/04/16 09:48:04;;;;;;;50.83;6.47;;;;;;;23.88;36.51;100034.28;4483159;32;33700;-58
2021/04/16 09:50:38;;;;;;;54.60;6.72;;;;;;;23.85;36.63;100034.72;4482291;32;33960;-49
2021/04/16 09:53:35;;;;;;;52.20;6.60;;;;;;;23.84;36.68;100036.59;4470435;32;33269;-61
2021/04/16 09:56:12;;;;;;;48.97;7.30;;;;;;;23.88;36.67;100026.09;4465836;32;33812;-64
2021/04/16 09:58:39;;;;;;;48.22;7.28;;;;;;;23.85;36.76;100027.37;4465870;32;33914;-59
2021/04/16 10:01:15;;;;;;;51.03;6.82;;;;;;;23.83;36.68;100025.94;4467099;32;34553;-59
2021/04/16 10:03:54;;;;;;;53.78;7.18;;;;;;;23.80;36.69;100034.53;4453264;32;33340;-58
2021/04/16 10:06:27;;;;;;;;;;;;;;;23.80;36.46;100029.09;4467483;32;34815;-58
2021/04/16 10:09:16;;;;;;;51.80;6.43;;;;;;;23.89;36.26;100030.47;4467508;32;35111;-60
2021/04/16 10:11:59;;;;;;;59.53;7.20;;;;;;;23.80;36.45;100034.53;4467386;32;34840;-58
2021/04/16 10:14:30;;;;;;;49.90;7.10;;;;;;;23.77;36.61;100029.53;4467247;32;33369;-57
2021/04/16 10:17:13;;;;;;;46.67;7.50;;;;;;;23.70;36.79;100034.22;4467038;32;33875;-58
2021/04/16 10:19:42;;;;;;;38.17;6.62;;;;;;;23.69;36.95;100027.94;4467267;32;33553;-59
2021/04/16 10:22:30;;;;;;;42.38;5.78;;;;;;;23.67;37.08;100036.31;4452948;32;33871;-60
2021/04/16 10:29:11;;;;;;;41.72;6.40;;;;;;;23.64;37.27;100034.06;4457976;32;33624;-49
2021/04/16 11:18:14;;;;;;;35.17;6.37;;;;;;;23.51;35.35;100025.12;4483281;32;33781;-58
2021/04/16 11:21:30;;;;;;;43.15;7.00;;;;;;;23.53;34.33;100023.84;4468829;32;33678;-67
2021/04/16 12:38:32;;;;;;;40.30;6.40;;;;;;;24.09;32.66;99995.66;4471311;32;33674;-60
2021/04/16 12:41:01;;;;;;;27.02;4.62;;;;;;;24.06;32.78;99996.16;4473580;32;33055;-62
2021/04/16 12:43:29;;;;;;;55.17;6.22;;;;;;;24.06;32.67;99996.16;4478299;32;34663;-60
2021/04/16 12:45:56;;;;;;;50.10;6.55;;;;;;;24.06;32.78;100001.59;4470441;32;32622;-67
2021/04/16 12:48:24;;;;;;;35.58;6.00;;;;;;;24.05;32.80;99994.44;4482871;32;33018;-57
2021/04/16 12:50:51;;;;;;;45.72;6.07;;;;;;;24.04;32.90;99998.25;4484035;31;34238;-57
2021/04/16 12:53:20;;;;;;;35.55;5.00;;;;;;;24.03;33.00;99999.31;4484300;32;33477;-57
2021/04/16 12:55:47;;;;;;;45.85;5.78;;;;;;;24.04;32.78;100003.69;4483887;32;34840;-59
2021/04/16 12:58:21;;;;;;;56.33;7.00;;;;;;;24.04;32.68;99991.97;4483843;32;34850;-62
2021/04/16 13:00:48;;;;;;;48.80;6.45;;;;;;;24.03;33.06;100003.94;4483147;32;33562;-68
2021/04/16 13:03:31;;;;;;;47.42;6.37;;;;;;;24.01;32.86;99995.97;4456965;32;32795;-68
2021/04/16 13:05:59;;;;;;;55.85;6.90;;;;;;;24.02;32.75;99999.53;4470098;32;33961;-60
2021/04/16 13:08:26;;;;;;;48.15;7.07;;;;;;;23.97;32.79;100000.22;4480793;32;33741;-60
2021/04/16 13:10:53;;;;;;;48.83;7.47;;;;;;;23.98;33.04;99992.87;4481111;32;34066;-60
2021/04/16 13:13:20;;;;;;;76.07;8.40;;;;;;;23.96;33.17;99994.97;4482709;32;33650;-60
2021/04/16 13:15:48;;;;;;;51.10;6.18;;;;;;;23.95;33.38;99994.16;4483330;32;34275;-60
2021/04/16 13:18:43;;;;;;;48.85;6.10;;;;;;;23.92;33.51;99991.84;4473017;32;34665;-61
2021/04/16 13:21:15;;;;;;;52.72;6.62;;;;;;;23.92;33.64;99991.84;4479524;32;33111;-61
2021/04/16 13:23:42;;;;;;;46.88;7.35;;;;;;;23.87;33.63;99992.53;4482777;32;32951;-60
2021/04/16 13:26:09;;;;;;;41.28;6.45;;;;;;;23.85;33.93;99985.66;4483684;32;34836;-60
2021/04/16 13:28:37;;;;;;;43.50;6.10;;;;;;;23.83;34.20;99993.25;4482813;32;32161;-61
2021/04/16 13:31:06;;;;;;;39.33;6.10;;;;;;;23.79;34.43;99987.41;4483277;32;33200;-60
2021/04/16 13:33:35;;;;;;;41.40;6.20;;;;;;;23.78;34.58;99987.59;4481567;32;33892;-62
2021/04/16 13:36:04;;;;;;;35.97;5.95;;;;;;;23.74;34.45;99983.69;4482556;32;34329;-72
2021/04/16 13:38:31;;;;;;;31.27;5.68;;;;;;;23.72;34.28;99981.16;4481682;32;32692;-69
2021/04/16 13:41:00;;;;;;;23.30;4.50;;;;;;;23.71;33.95;99981.41;4468908;32;32167;-70
2021/04/16 13:43:28;;;;;;;27.15;4.05;;;;;;;23.70;34.94;99977.84;4483351;32;33822;-65
2021/04/16 13:45:57;;;;;;;33.37;5.30;;;;;;;23.69;34.17;99973.47;4483140;32;34030;-56
2021/04/16 13:48:24;;;;;;;34.28;5.25;;;;;;;23.71;34.05;99973.22;4468858;32;33618;-51
2021/04/16 13:50:51;;;;;;;32.75;5.10;;;;;;;23.65;33.42;99967.62;4483478;32;33653;-53